createdAt,value
2019-02-28T00:00:16.022Z,7.34
2019-02-28T00:01:17.584Z,7.39
2019-02-28T00:02:21.080Z,7.39
2019-02-28T00:03:15.975Z,7.54
2019-02-28T00:04:15.959Z,7.36
2019-02-28T00:05:15.943Z,7.47
2019-02-28T00:06:17.492Z,7.36
2019-02-28T00:07:20.173Z,7.37
2019-02-28T00:08:15.900Z,7.4
2019-02-28T00:09:15.643Z,7.4
2019-02-28T00:10:15.878Z,7.51
2019-02-28T00:11:15.865Z,7.45
2019-02-28T00:12:19.013Z,7.41
2019-02-28T00:13:15.839Z,7.29
2019-02-28T00:14:15.827Z,7.36
2019-02-28T00:15:15.809Z,7.44
2019-02-28T00:16:15.795Z,7.41
2019-02-28T00:17:15.538Z,7.33
2019-02-28T00:18:17.829Z,7.36
2019-02-28T00:19:15.516Z,7.36
2019-02-28T00:20:15.495Z,7.34
2019-02-28T00:21:15.728Z,7.27
2019-02-28T00:22:19.154Z,7.22
2019-02-28T00:23:15.704Z,7.23
2019-02-28T00:24:15.448Z,7.29
2019-02-28T00:25:15.693Z,7.36
2019-02-28T00:26:16.773Z,7.34
2019-02-28T00:27:20.835Z,7.41
2019-02-28T00:28:15.642Z,7.47
2019-02-28T00:29:15.624Z,7.54
2019-02-28T00:30:15.618Z,7.59
2019-02-28T00:31:19.414Z,7.49
2019-02-28T00:32:15.585Z,7.45
2019-02-28T00:33:15.571Z,7.52
2019-02-28T00:34:15.551Z,7.47
2019-02-28T00:35:18.741Z,7.45
2019-02-28T00:36:16.275Z,7.4
2019-02-28T00:37:15.523Z,7.37
2019-02-28T00:38:15.010Z,7.21
2019-02-28T00:39:15.241Z,7.22
2019-02-28T00:40:15.473Z,7.12
2019-02-28T00:41:15.460Z,7.21
2019-02-28T00:42:19.988Z,7.18
2019-02-28T00:43:15.436Z,7.13
2019-02-28T00:44:15.440Z,7.19
2019-02-28T00:45:15.430Z,7.26
2019-02-28T00:46:15.789Z,7.37
2019-02-28T00:47:16.388Z,7.29
2019-02-28T00:48:15.133Z,7.39
2019-02-28T00:49:15.397Z,7.45
2019-02-28T00:50:15.342Z,7.31
2019-02-28T00:51:15.324Z,7.44
2019-02-28T00:52:15.070Z,7.47
2019-02-28T00:53:15.292Z,7.45
2019-02-28T00:54:15.291Z,7.51
2019-02-28T00:55:17.115Z,7.41
2019-02-28T00:56:17.499Z,7.37
2019-02-28T00:57:15.251Z,7.27
2019-02-28T00:58:15.231Z,7.37
2019-02-28T00:59:15.227Z,7.37
2019-02-28T01:00:15.204Z,7.39
2019-02-28T01:01:16.339Z,7.45
2019-02-28T01:02:17.562Z,7.4
2019-02-28T01:03:15.161Z,7.44
2019-02-28T01:04:15.158Z,7.4
2019-02-28T01:05:15.140Z,7.36
2019-02-28T01:06:15.424Z,7.3
2019-02-28T01:07:18.168Z,7.19
2019-02-28T01:08:15.114Z,7.18
2019-02-28T01:09:15.082Z,7.11
2019-02-28T01:10:15.122Z,7.16
2019-02-28T01:11:17.716Z,7.16
2019-02-28T01:12:21.341Z,7.16
2019-02-28T01:13:15.028Z,7.15
2019-02-28T01:14:15.012Z,7.12
2019-02-28T01:15:15.564Z,7.16
2019-02-28T01:16:16.039Z,7.16
2019-02-28T01:17:14.973Z,7.15
2019-02-28T01:18:14.712Z,7.21
2019-02-28T01:19:15.077Z,7.13
2019-02-28T01:20:19.719Z,7.12
2019-02-28T01:21:14.924Z,7.05
2019-02-28T01:22:14.913Z,7.03
2019-02-28T01:23:14.896Z,6.94
2019-02-28T01:24:14.880Z,6.9
2019-02-28T01:25:14.864Z,6.78
2019-02-28T01:26:17.138Z,6.73
2019-02-28T01:27:17.259Z,6.57
2019-02-28T01:28:14.823Z,6.65
2019-02-28T01:29:14.808Z,6.57
2019-02-28T01:30:14.815Z,6.54
2019-02-28T01:31:16.465Z,6.54
2019-02-28T01:32:17.954Z,6.57
2019-02-28T01:33:14.756Z,6.52
2019-02-28T01:34:14.745Z,6.65
2019-02-28T01:35:14.239Z,6.61
2019-02-28T01:36:20.036Z,6.75
2019-02-28T01:37:14.700Z,6.85
2019-02-28T01:38:14.693Z,6.97
2019-02-28T01:39:14.683Z,6.9
2019-02-28T01:40:14.658Z,6.91
2019-02-28T01:41:16.079Z,6.94
2019-02-28T01:42:16.202Z,6.85
2019-02-28T01:43:14.622Z,6.88
2019-02-28T01:44:14.601Z,6.8
2019-02-28T01:45:15.783Z,6.91
2019-02-28T01:46:19.375Z,6.83
2019-02-28T01:47:14.564Z,6.94
2019-02-28T01:48:14.300Z,6.79
2019-02-28T01:49:14.290Z,6.79
2019-02-28T01:50:14.519Z,6.8
2019-02-28T01:51:14.505Z,6.7
2019-02-28T01:52:15.236Z,6.68
2019-02-28T01:53:18.418Z,6.65
2019-02-28T01:54:14.224Z,6.65
2019-02-28T01:55:14.454Z,6.78
2019-02-28T01:56:14.205Z,6.83
2019-02-28T01:57:14.821Z,6.79
2019-02-28T01:58:18.830Z,6.82
2019-02-28T01:59:14.403Z,6.9
2019-02-28T02:00:14.384Z,6.82
2019-02-28T02:01:14.440Z,6.8
2019-02-28T02:02:14.366Z,6.88
2019-02-28T02:03:14.968Z,6.86
2019-02-28T02:04:17.437Z,6.91
2019-02-28T02:05:16.813Z,6.98
2019-02-28T02:06:14.298Z,7.04
2019-02-28T02:07:14.286Z,7.21
2019-02-28T02:08:14.275Z,7.18
2019-02-28T02:09:16.476Z,7.18
2019-02-28T02:10:13.995Z,7.27
2019-02-28T02:11:13.981Z,7.34
2019-02-28T02:12:14.213Z,7.37
2019-02-28T02:13:13.964Z,7.4
2019-02-28T02:14:16.504Z,7.44
2019-02-28T02:15:16.767Z,7.45
2019-02-28T02:16:13.910Z,7.49
2019-02-28T02:17:14.143Z,7.47
2019-02-28T02:18:14.865Z,7.31
2019-02-28T02:19:20.045Z,7.31
2019-02-28T02:20:14.117Z,7.31
2019-02-28T02:21:13.847Z,7.29
2019-02-28T02:22:14.693Z,7.36
2019-02-28T02:23:17.614Z,7.29
2019-02-28T02:24:14.048Z,7.36
2019-02-28T02:25:14.040Z,7.23
2019-02-28T02:26:16.178Z,7.23
2019-02-28T02:27:16.198Z,7.39
2019-02-28T02:28:13.748Z,7.34
2019-02-28T02:29:13.735Z,7.29
2019-02-28T02:30:19.984Z,7.41
2019-02-28T02:31:13.982Z,7.4
2019-02-28T02:32:13.958Z,7.45
2019-02-28T02:33:18.884Z,7.33
2019-02-28T02:34:13.930Z,7.33
2019-02-28T02:35:13.916Z,7.21
2019-02-28T02:36:18.865Z,7.16
2019-02-28T02:37:13.880Z,7.22
2019-02-28T02:38:13.625Z,7.21
2019-02-28T02:39:18.883Z,7.23
2019-02-28T02:40:13.837Z,7.22
2019-02-28T02:41:13.841Z,7.3
2019-02-28T02:42:16.347Z,7.49
2019-02-28T02:43:13.799Z,7.49
2019-02-28T02:44:13.784Z,7.49
2019-02-28T02:45:13.774Z,7.4
2019-02-28T02:46:22.440Z,7.52
2019-02-28T02:47:13.739Z,7.34
2019-02-28T02:48:13.745Z,7.48
2019-02-28T02:49:21.324Z,7.47
2019-02-28T02:50:13.953Z,7.49
2019-02-28T02:51:17.003Z,7.47
2019-02-28T02:52:13.679Z,7.52
2019-02-28T02:53:13.662Z,7.58
2019-02-28T02:54:20.563Z,7.54
2019-02-28T02:55:13.645Z,7.51
2019-02-28T02:56:13.640Z,7.51
2019-02-28T02:57:16.561Z,7.51
2019-02-28T02:58:13.590Z,7.55
2019-02-28T02:59:13.586Z,7.55
2019-02-28T03:00:18.386Z,7.47
2019-02-28T03:01:13.557Z,7.49
2019-02-28T03:02:13.296Z,7.55
2019-02-28T03:03:13.533Z,7.49
2019-02-28T03:04:21.344Z,7.48
2019-02-28T03:05:13.506Z,7.44
2019-02-28T03:06:18.828Z,7.33
2019-02-28T03:07:13.487Z,7.47
2019-02-28T03:08:12.965Z,7.36
2019-02-28T03:09:15.486Z,7.39
2019-02-28T03:10:17.217Z,7.31
2019-02-28T03:11:13.439Z,7.39
2019-02-28T03:12:13.408Z,7.31
2019-02-28T03:13:13.143Z,7.34
2019-02-28T03:14:16.213Z,7.27
2019-02-28T03:15:13.367Z,7.26
2019-02-28T03:16:13.460Z,7.22
2019-02-28T03:17:16.638Z,7.22
2019-02-28T03:18:13.356Z,7.37
2019-02-28T03:19:13.314Z,7.26
2019-02-28T03:20:13.697Z,7.37
2019-02-28T03:21:17.769Z,7.41
2019-02-28T03:22:13.264Z,7.47
2019-02-28T03:23:13.012Z,7.48
2019-02-28T03:24:19.547Z,7.41
2019-02-28T03:25:13.228Z,7.49
2019-02-28T03:26:13.221Z,7.41
2019-02-28T03:27:18.513Z,7.45
2019-02-28T03:28:14.091Z,7.45
2019-02-28T03:29:13.814Z,7.31
2019-02-28T03:30:25.690Z,7.27
2019-02-28T03:31:19.488Z,7.39
2019-02-28T03:32:13.209Z,7.4
2019-02-28T03:33:28.648Z,7.39
2019-02-28T03:34:17.898Z,7.39
2019-02-28T03:35:13.122Z,7.36
2019-02-28T03:36:15.573Z,7.33
2019-02-28T03:37:12.819Z,7.34
2019-02-28T03:38:17.012Z,7.34
2019-02-28T03:39:13.045Z,7.34
2019-02-28T03:40:13.049Z,7.31
2019-02-28T03:41:21.200Z,7.29
2019-02-28T03:42:12.998Z,7.3
2019-02-28T03:43:12.985Z,7.36
2019-02-28T03:44:19.682Z,7.37
2019-02-28T03:45:12.961Z,7.21
2019-02-28T03:46:15.999Z,7.21
2019-02-28T03:47:12.978Z,7.29
2019-02-28T03:48:12.955Z,7.29
2019-02-28T03:49:17.001Z,7.34
2019-02-28T03:50:12.902Z,7.48
2019-02-28T03:51:12.887Z,7.4
2019-02-28T03:52:12.872Z,7.4
2019-02-28T03:53:19.202Z,7.45
2019-02-28T03:54:12.846Z,7.37
2019-02-28T03:55:12.831Z,7.36
2019-02-28T03:56:16.898Z,7.33
2019-02-28T03:57:12.810Z,7.36
2019-02-28T03:58:12.805Z,7.36
2019-02-28T03:59:18.063Z,7.36
2019-02-28T04:00:12.753Z,7.41
2019-02-28T04:01:14.883Z,7.37
2019-02-28T04:02:12.483Z,7.31
2019-02-28T04:03:12.475Z,7.36
2019-02-28T04:04:17.097Z,7.34
2019-02-28T04:05:12.596Z,7.23
2019-02-28T04:06:12.675Z,7.21
2019-02-28T04:07:18.179Z,7.26
2019-02-28T04:08:12.397Z,7.23
2019-02-28T04:09:13.838Z,7.22
2019-02-28T04:10:16.589Z,7.18
2019-02-28T04:11:12.615Z,7.26
2019-02-28T04:12:13.628Z,7.23
2019-02-28T04:13:12.583Z,7.29
2019-02-28T04:14:12.569Z,7.27
2019-02-28T04:15:15.073Z,7.21
2019-02-28T04:16:14.237Z,7.23
2019-02-28T04:17:12.522Z,7.22
2019-02-28T04:18:13.131Z,7.21
2019-02-28T04:19:12.503Z,7
2019-02-28T04:20:12.483Z,7.05
2019-02-28T04:21:15.009Z,7.01
2019-02-28T04:22:12.457Z,7.15
2019-02-28T04:23:12.438Z,7.12
2019-02-28T04:24:17.528Z,7.16
2019-02-28T04:25:12.428Z,7.08
2019-02-28T04:26:12.420Z,7.03
2019-02-28T04:27:12.438Z,6.98
2019-02-28T04:28:19.771Z,6.93
2019-02-28T04:29:12.115Z,6.83
2019-02-28T04:30:13.239Z,6.83
2019-02-28T04:31:18.302Z,6.94
2019-02-28T04:32:12.314Z,6.9
2019-02-28T04:33:12.327Z,6.83
2019-02-28T04:34:18.025Z,6.83
2019-02-28T04:35:12.292Z,6.85
2019-02-28T04:36:12.286Z,6.82
2019-02-28T04:37:14.239Z,6.72
2019-02-28T04:38:12.235Z,6.65
2019-02-28T04:39:12.218Z,6.64
2019-02-28T04:40:12.227Z,6.55
2019-02-28T04:41:12.195Z,6.57
2019-02-28T04:42:12.179Z,6.65
2019-02-28T04:43:14.906Z,6.64
2019-02-28T04:44:12.146Z,6.83
2019-02-28T04:45:12.139Z,6.79
2019-02-28T04:46:12.126Z,6.83
2019-02-28T04:47:12.418Z,6.79
2019-02-28T04:48:16.204Z,6.82
2019-02-28T04:49:12.080Z,6.79
2019-02-28T04:50:12.063Z,6.73
2019-02-28T04:51:12.049Z,6.67
2019-02-28T04:52:14.357Z,6.68
2019-02-28T04:53:12.019Z,6.64
2019-02-28T04:54:12.006Z,6.68
2019-02-28T04:55:12.004Z,6.65
2019-02-28T04:56:15.753Z,6.57
2019-02-28T04:57:11.964Z,6.61
2019-02-28T04:58:11.954Z,6.54
2019-02-28T04:59:11.693Z,6.39
2019-02-28T05:00:11.690Z,6.4
2019-02-28T05:01:16.740Z,6.51
2019-02-28T05:02:11.896Z,6.37
2019-02-28T05:03:11.885Z,6.42
2019-02-28T05:04:11.866Z,6.39
2019-02-28T05:05:17.071Z,6.39
2019-02-28T05:06:11.876Z,6.42
2019-02-28T05:07:11.828Z,6.42
2019-02-28T05:08:11.811Z,6.39
2019-02-28T05:09:16.553Z,6.39
2019-02-28T05:10:11.786Z,6.36
2019-02-28T05:11:11.770Z,6.39
2019-02-28T05:12:11.755Z,6.29
2019-02-28T05:13:14.269Z,6.26
2019-02-28T05:14:11.482Z,6.21
2019-02-28T05:15:11.714Z,6.17
2019-02-28T05:16:14.797Z,6.2
2019-02-28T05:17:11.439Z,6.21
2019-02-28T05:18:11.672Z,6.25
2019-02-28T05:19:11.658Z,6.13
2019-02-28T05:20:15.210Z,6.09
2019-02-28T05:21:11.629Z,6.07
2019-02-28T05:22:11.366Z,5.99
2019-02-28T05:23:11.606Z,6
2019-02-28T05:24:12.564Z,5.88
2019-02-28T05:25:17.279Z,5.98
2019-02-28T05:26:11.564Z,5.85
2019-02-28T05:27:11.298Z,5.91
2019-02-28T05:28:12.345Z,5.91
2019-02-28T05:29:14.494Z,5.89
2019-02-28T05:30:11.504Z,5.98
2019-02-28T05:31:11.486Z,5.87
2019-02-28T05:32:11.478Z,5.95
2019-02-28T05:33:12.251Z,6.02
2019-02-28T05:34:13.156Z,6.03
2019-02-28T05:35:11.446Z,6
2019-02-28T05:36:11.417Z,5.96
2019-02-28T05:37:17.054Z,5.98
2019-02-28T05:38:11.142Z,5.88
2019-02-28T05:39:11.374Z,5.87
2019-02-28T05:40:11.730Z,5.77
2019-02-28T05:41:12.091Z,5.8
2019-02-28T05:42:11.327Z,5.82
2019-02-28T05:43:11.310Z,5.77
2019-02-28T05:44:12.159Z,5.75
2019-02-28T05:45:14.538Z,5.67
2019-02-28T05:46:11.282Z,5.72
2019-02-28T05:47:11.257Z,5.69
2019-02-28T05:48:11.243Z,5.72
2019-02-28T05:49:13.642Z,5.72
2019-02-28T05:50:15.072Z,5.64
2019-02-28T05:51:11.201Z,5.54
2019-02-28T05:52:11.236Z,5.63
2019-02-28T05:53:14.665Z,5.48
2019-02-28T05:54:15.693Z,5.44
2019-02-28T05:55:10.893Z,5.51
2019-02-28T05:56:11.124Z,5.42
2019-02-28T05:57:13.593Z,5.41
2019-02-28T05:58:11.093Z,5.42
2019-02-28T05:59:11.090Z,5.3
2019-02-28T06:00:10.825Z,5.23
2019-02-28T06:01:16.411Z,5.23
2019-02-28T06:02:11.039Z,5.15
2019-02-28T06:03:11.024Z,5.15
2019-02-28T06:04:11.007Z,5.2
2019-02-28T06:05:16.262Z,5.21
2019-02-28T06:06:12.845Z,5.12
2019-02-28T06:07:11.864Z,5.15
2019-02-28T06:08:10.944Z,5.15
2019-02-28T06:09:15.669Z,5.27
2019-02-28T06:10:10.920Z,5.16
2019-02-28T06:11:10.671Z,5.16
2019-02-28T06:12:13.933Z,5.2
2019-02-28T06:13:10.880Z,5.23
2019-02-28T06:14:10.862Z,5.18
2019-02-28T06:15:10.593Z,5.2
2019-02-28T06:16:16.198Z,5.18
2019-02-28T06:17:10.812Z,5.12
2019-02-28T06:18:10.818Z,5.13
2019-02-28T06:19:13.680Z,5.18
2019-02-28T06:20:10.772Z,5.15
2019-02-28T06:21:12.702Z,5.13
2019-02-28T06:22:10.745Z,5.15
2019-02-28T06:23:13.718Z,5.15
2019-02-28T06:24:12.712Z,5.1
2019-02-28T06:25:10.711Z,5.23
2019-02-28T06:26:10.699Z,5.26
2019-02-28T06:27:12.138Z,5.15
2019-02-28T06:28:12.026Z,5.16
2019-02-28T06:29:10.483Z,5.18
2019-02-28T06:30:13.533Z,5.16
2019-02-28T06:31:10.361Z,5.23
2019-02-28T06:32:10.344Z,5.09
2019-02-28T06:33:10.334Z,5.13
2019-02-28T06:34:13.988Z,5.12
2019-02-28T06:35:15.823Z,5.18
2019-02-28T06:36:10.529Z,5.24
2019-02-28T06:37:10.526Z,5.16
2019-02-28T06:38:11.646Z,5.15
2019-02-28T06:39:10.483Z,5.16
2019-02-28T06:40:10.472Z,5.21
2019-02-28T06:41:12.597Z,5.16
2019-02-28T06:42:11.750Z,5.21
2019-02-28T06:43:10.439Z,5.16
2019-02-28T06:44:10.415Z,5.16
2019-02-28T06:45:10.404Z,5.16
2019-02-28T06:46:13.452Z,5.21
2019-02-28T06:47:11.242Z,5.13
2019-02-28T06:48:10.354Z,5.18
2019-02-28T06:49:11.935Z,5.18
2019-02-28T06:50:12.935Z,5.09
2019-02-28T06:51:10.060Z,5.16
2019-02-28T06:52:10.345Z,5.15
2019-02-28T06:53:10.273Z,5.18
2019-02-28T06:54:13.296Z,5.12
2019-02-28T06:55:12.571Z,5.15
2019-02-28T06:56:10.239Z,5.2
2019-02-28T06:57:10.222Z,5.16
2019-02-28T06:58:10.202Z,5.13
2019-02-28T06:59:10.379Z,5.21
2019-02-28T07:00:15.302Z,5.16
2019-02-28T07:01:10.161Z,5.24
2019-02-28T07:02:11.369Z,5.21
2019-02-28T07:03:09.877Z,5.23
2019-02-28T07:04:11.420Z,5.23
2019-02-28T07:05:10.095Z,5.31
2019-02-28T07:06:10.084Z,5.36
2019-02-28T07:07:16.081Z,5.34
2019-02-28T07:08:10.049Z,5.31
2019-02-28T07:09:10.044Z,5.37
2019-02-28T07:10:14.662Z,5.36
2019-02-28T07:11:10.005Z,5.41
2019-02-28T07:12:09.745Z,5.45
2019-02-28T07:13:11.877Z,5.39
2019-02-28T07:14:15.101Z,5.51
2019-02-28T07:15:10.043Z,5.45
2019-02-28T07:16:09.948Z,5.48
2019-02-28T07:17:15.168Z,5.49
2019-02-28T07:18:09.904Z,5.39
2019-02-28T07:19:09.883Z,5.48
2019-02-28T07:20:12.012Z,5.55
2019-02-28T07:21:12.659Z,5.64
2019-02-28T07:22:09.853Z,5.64
2019-02-28T07:23:09.829Z,5.7
2019-02-28T07:24:09.817Z,5.73
2019-02-28T07:25:14.401Z,5.75
2019-02-28T07:26:09.805Z,5.81
2019-02-28T07:27:09.769Z,5.78
2019-02-28T07:28:09.762Z,5.87
2019-02-28T07:29:13.580Z,5.88
2019-02-28T07:30:09.728Z,5.88
2019-02-28T07:31:09.725Z,5.99
2019-02-28T07:32:09.698Z,5.98
2019-02-28T07:33:14.406Z,6.14
2019-02-28T07:34:09.674Z,6.1
2019-02-28T07:35:09.650Z,6.06
2019-02-28T07:36:13.601Z,6.21
2019-02-28T07:37:09.624Z,6.17
2019-02-28T07:38:09.628Z,6.29
2019-02-28T07:39:10.028Z,6.31
2019-02-28T07:40:15.349Z,6.28
2019-02-28T07:41:09.567Z,6.24
2019-02-28T07:42:09.559Z,6.36
2019-02-28T07:43:14.768Z,6.4
2019-02-28T07:44:09.290Z,6.39
2019-02-28T07:45:09.507Z,6.39
2019-02-28T07:46:12.801Z,6.39
2019-02-28T07:47:09.499Z,6.47
2019-02-28T07:48:09.465Z,6.47
2019-02-28T07:49:09.448Z,6.51
2019-02-28T07:50:15.119Z,6.46
2019-02-28T07:51:09.422Z,6.51
2019-02-28T07:52:09.406Z,6.6
2019-02-28T07:53:11.335Z,6.46
2019-02-28T07:54:09.138Z,6.58
2019-02-28T07:55:09.378Z,6.55
2019-02-28T07:56:12.518Z,6.61
2019-02-28T07:57:09.341Z,6.57
2019-02-28T07:58:09.322Z,6.67
2019-02-28T07:59:10.743Z,6.6
2019-02-28T08:00:09.307Z,6.6
2019-02-28T08:01:09.281Z,6.72
2019-02-28T08:02:09.284Z,6.75
2019-02-28T08:03:11.153Z,6.82
2019-02-28T08:04:09.237Z,6.9
2019-02-28T08:05:09.226Z,6.95
2019-02-28T08:06:10.474Z,7
2019-02-28T08:07:11.381Z,7.04
2019-02-28T08:08:09.184Z,7.12
2019-02-28T08:09:09.615Z,7.09
2019-02-28T08:10:09.151Z,7.21
2019-02-28T08:11:09.139Z,7.29
2019-02-28T08:12:09.128Z,7.36
2019-02-28T08:13:09.114Z,7.31
2019-02-28T08:14:12.114Z,7.44
2019-02-28T08:15:09.103Z,7.41
2019-02-28T08:16:09.076Z,7.49
2019-02-28T08:17:12.154Z,7.58
2019-02-28T08:18:10.621Z,7.55
2019-02-28T08:19:09.028Z,7.63
2019-02-28T08:20:09.016Z,7.73
2019-02-28T08:21:13.071Z,7.77
2019-02-28T08:22:08.991Z,7.82
2019-02-28T08:23:08.734Z,7.78
2019-02-28T08:24:11.065Z,7.8
2019-02-28T08:25:10.243Z,7.98
2019-02-28T08:26:08.945Z,7.91
2019-02-28T08:27:08.956Z,7.99
2019-02-28T08:28:08.917Z,8.09
2019-02-28T08:29:11.711Z,8.16
2019-02-28T08:30:08.888Z,8.22
2019-02-28T08:31:08.868Z,8.21
2019-02-28T08:32:12.836Z,8.11
2019-02-28T08:33:08.863Z,8.24
2019-02-28T08:34:08.584Z,8.22
2019-02-28T08:35:08.819Z,8.24
2019-02-28T08:36:15.043Z,8.19
2019-02-28T08:37:08.541Z,8.22
2019-02-28T08:38:09.344Z,8.34
2019-02-28T08:39:16.106Z,8.36
2019-02-28T08:40:08.503Z,8.42
2019-02-28T08:41:11.172Z,8.43
2019-02-28T08:42:09.731Z,8.52
2019-02-28T08:43:10.460Z,8.46
2019-02-28T08:44:08.764Z,8.49
2019-02-28T08:45:10.742Z,8.49
2019-02-28T08:46:16.302Z,8.54
2019-02-28T08:47:08.413Z,8.61
2019-02-28T08:48:08.648Z,8.57
2019-02-28T08:49:12.041Z,8.64
2019-02-28T08:50:08.621Z,8.64
2019-02-28T08:51:08.612Z,8.62
2019-02-28T08:52:11.362Z,8.62
2019-02-28T08:53:08.583Z,8.68
2019-02-28T08:54:08.569Z,8.64
2019-02-28T08:55:12.347Z,8.71
2019-02-28T08:56:10.974Z,8.62
2019-02-28T08:57:08.531Z,8.64
2019-02-28T08:58:11.179Z,8.74
2019-02-28T08:59:22.608Z,8.74
2019-02-28T09:00:08.508Z,8.76
2019-02-28T09:01:10.274Z,8.83
2019-02-28T09:02:08.473Z,8.83
2019-02-28T09:03:08.460Z,8.85
2019-02-28T09:04:09.991Z,8.92
2019-02-28T09:05:09.154Z,8.9
2019-02-28T09:06:11.979Z,8.98
2019-02-28T09:07:08.408Z,8.92
2019-02-28T09:08:08.405Z,9
2019-02-28T09:09:08.388Z,9.01
2019-02-28T09:10:14.315Z,9.08
2019-02-28T09:11:08.118Z,9.05
2019-02-28T09:12:08.352Z,9.01
2019-02-28T09:13:12.579Z,9.05
2019-02-28T09:14:10.282Z,9.26
2019-02-28T09:15:08.314Z,9.21
2019-02-28T09:16:09.808Z,9.24
2019-02-28T09:17:08.084Z,9.35
2019-02-28T09:18:09.793Z,9.3
2019-02-28T09:19:08.262Z,9.35
2019-02-28T09:20:12.428Z,9.42
2019-02-28T09:21:08.235Z,9.47
2019-02-28T09:22:08.225Z,9.5
2019-02-28T09:23:08.815Z,9.55
2019-02-28T09:24:09.370Z,9.55
2019-02-28T09:25:08.187Z,9.62
2019-02-28T09:26:08.314Z,9.75
2019-02-28T09:27:09.627Z,9.78
2019-02-28T09:28:10.144Z,9.93
2019-02-28T09:29:08.194Z,9.99
2019-02-28T09:30:07.886Z,10.14
2019-02-28T09:31:10.605Z,10.07
2019-02-28T09:32:10.160Z,10.11
2019-02-28T09:33:07.857Z,10.15
2019-02-28T09:34:09.265Z,10.21
2019-02-28T09:35:16.767Z,10.26
2019-02-28T09:36:08.066Z,10.26
2019-02-28T09:37:08.045Z,10.26
2019-02-28T09:38:15.885Z,10.33
2019-02-28T09:39:08.026Z,10.28
2019-02-28T09:40:08.015Z,10.38
2019-02-28T09:41:09.122Z,10.28
2019-02-28T09:42:07.994Z,10.33
2019-02-28T09:43:07.975Z,10.41
2019-02-28T09:44:09.565Z,10.36
2019-02-28T09:45:11.596Z,10.39
2019-02-28T09:46:09.057Z,10.44
2019-02-28T09:47:10.229Z,10.39
2019-02-28T09:48:07.943Z,10.38
2019-02-28T09:49:11.771Z,10.46
2019-02-28T09:50:07.660Z,10.42
2019-02-28T09:51:07.889Z,10.54
2019-02-28T09:52:11.037Z,10.51
2019-02-28T09:53:07.622Z,10.46
2019-02-28T09:54:07.853Z,10.52
2019-02-28T09:55:07.999Z,10.52
2019-02-28T09:56:11.563Z,10.61
2019-02-28T09:57:07.824Z,10.55
2019-02-28T09:58:07.824Z,10.63
2019-02-28T09:59:08.665Z,10.7
2019-02-28T10:00:11.603Z,10.67
2019-02-28T10:01:07.539Z,10.69
2019-02-28T10:02:13.056Z,10.73
2019-02-28T10:03:09.248Z,10.72
2019-02-28T10:04:07.751Z,10.79
2019-02-28T10:05:14.211Z,10.87
2019-02-28T10:06:07.480Z,10.9
2019-02-28T10:07:07.470Z,10.97
2019-02-28T10:08:09.557Z,10.98
2019-02-28T10:09:08.707Z,11.06
2019-02-28T10:10:07.686Z,11.02
2019-02-28T10:11:07.676Z,11.12
2019-02-28T10:12:13.477Z,11.12
2019-02-28T10:13:07.651Z,11.12
2019-02-28T10:14:07.653Z,11.21
2019-02-28T10:15:12.147Z,11.26
2019-02-28T10:16:07.374Z,11.3
2019-02-28T10:17:07.362Z,11.43
2019-02-28T10:18:09.844Z,11.51
2019-02-28T10:19:10.170Z,11.56
2019-02-28T10:20:07.571Z,11.64
2019-02-28T10:21:07.562Z,11.67
2019-02-28T10:22:10.045Z,11.66
2019-02-28T10:23:07.549Z,11.66
2019-02-28T10:24:07.533Z,11.63
2019-02-28T10:25:10.658Z,11.66
2019-02-28T10:26:07.280Z,11.71
2019-02-28T10:27:08.372Z,11.66
2019-02-28T10:28:07.675Z,11.7
2019-02-28T10:29:11.939Z,11.66
2019-02-28T10:30:07.468Z,11.75
2019-02-28T10:31:07.459Z,11.78
2019-02-28T10:32:11.163Z,11.68
2019-02-28T10:33:07.437Z,11.66
2019-02-28T10:34:07.450Z,11.71
2019-02-28T10:35:07.417Z,11.66
2019-02-28T10:36:09.199Z,11.64
2019-02-28T10:37:09.097Z,11.78
2019-02-28T10:38:07.387Z,11.84
2019-02-28T10:39:08.853Z,11.82
2019-02-28T10:40:07.562Z,11.84
2019-02-28T10:41:07.369Z,11.91
2019-02-28T10:42:10.602Z,11.79
2019-02-28T10:43:07.334Z,11.91
2019-02-28T10:44:07.355Z,12.04
2019-02-28T10:45:10.894Z,12.04
2019-02-28T10:46:07.308Z,12
2019-02-28T10:47:07.296Z,12
2019-02-28T10:48:08.720Z,12
2019-02-28T10:49:07.279Z,11.95
2019-02-28T10:50:07.020Z,12.1
2019-02-28T10:51:17.866Z,12.05
2019-02-28T10:52:07.250Z,12.05
2019-02-28T10:53:10.246Z,12.05
2019-02-28T10:54:07.227Z,12.19
2019-02-28T10:55:06.971Z,12.2
2019-02-28T10:56:07.204Z,12.18
2019-02-28T10:57:10.411Z,12.19
2019-02-28T10:58:07.197Z,12.25
2019-02-28T10:59:07.173Z,12.28
2019-02-28T11:00:07.168Z,12.37
2019-02-28T11:01:12.571Z,12.34
2019-02-28T11:02:07.149Z,12.34
2019-02-28T11:03:07.148Z,12.33
2019-02-28T11:04:11.684Z,12.38
2019-02-28T11:05:07.988Z,12.47
2019-02-28T11:06:07.111Z,12.44
2019-02-28T11:07:09.530Z,12.58
2019-02-28T11:08:09.578Z,12.58
2019-02-28T11:09:07.085Z,12.59
2019-02-28T11:10:07.088Z,12.51
2019-02-28T11:11:12.458Z,12.65
2019-02-28T11:12:07.052Z,12.65
2019-02-28T11:13:07.041Z,12.71
2019-02-28T11:14:08.933Z,12.69
2019-02-28T11:15:07.021Z,12.69
2019-02-28T11:16:07.011Z,12.73
2019-02-28T11:17:12.318Z,12.66
2019-02-28T11:18:11.067Z,12.66
2019-02-28T11:19:06.987Z,12.69
2019-02-28T11:20:06.978Z,12.73
2019-02-28T11:21:06.960Z,12.76
2019-02-28T11:22:10.439Z,12.83
2019-02-28T11:23:07.638Z,12.89
2019-02-28T11:24:06.940Z,12.86
2019-02-28T11:25:06.711Z,12.96
2019-02-28T11:26:11.534Z,12.94
2019-02-28T11:27:06.660Z,13.02
2019-02-28T11:28:06.903Z,13.07
2019-02-28T11:29:08.575Z,12.94
2019-02-28T11:30:07.360Z,12.99
2019-02-28T11:31:06.868Z,13.01
2019-02-28T11:32:06.864Z,13.03
2019-02-28T11:33:09.346Z,13.09
2019-02-28T11:34:06.845Z,13.1
2019-02-28T11:35:06.837Z,13.03
2019-02-28T11:36:07.463Z,12.96
2019-02-28T11:37:12.736Z,12.95
2019-02-28T11:38:07.483Z,12.94
2019-02-28T11:39:06.798Z,12.98
2019-02-28T11:40:08.457Z,13.1
2019-02-28T11:41:06.779Z,13.11
2019-02-28T11:42:06.772Z,13.16
2019-02-28T11:43:07.743Z,13.13
2019-02-28T11:44:09.174Z,13.06
2019-02-28T11:45:06.754Z,13.09
2019-02-28T11:46:07.903Z,13.17
2019-02-28T11:47:08.318Z,13.11
2019-02-28T11:48:06.475Z,13.25
2019-02-28T11:49:06.703Z,13.2
2019-02-28T11:50:10.240Z,13.17
2019-02-28T11:51:06.689Z,13.14
2019-02-28T11:52:06.674Z,13.28
2019-02-28T11:53:10.289Z,13.14
2019-02-28T11:54:06.690Z,13.14
2019-02-28T11:55:06.662Z,13.32
2019-02-28T11:56:06.668Z,13.17
2019-02-28T11:57:09.297Z,13.2
2019-02-28T11:58:06.626Z,13.1
2019-02-28T11:59:06.620Z,13.09
2019-02-28T12:00:06.614Z,12.91
2019-02-28T12:01:12.695Z,12.88
2019-02-28T12:02:06.605Z,12.83
2019-02-28T12:03:08.104Z,12.84
2019-02-28T12:04:06.570Z,12.86
2019-02-28T12:05:06.322Z,12.83
2019-02-28T12:06:06.918Z,12.89
2019-02-28T12:07:06.563Z,12.83
2019-02-28T12:08:11.761Z,12.95
2019-02-28T12:09:06.526Z,12.96
2019-02-28T12:10:06.525Z,12.96
2019-02-28T12:11:07.557Z,13.03
2019-02-28T12:12:07.235Z,12.96
2019-02-28T12:13:06.503Z,12.99
2019-02-28T12:14:08.698Z,13.01
2019-02-28T12:15:10.407Z,12.94
2019-02-28T12:16:06.469Z,13.07
2019-02-28T12:17:06.209Z,13.07
2019-02-28T12:18:09.224Z,13.1
2019-02-28T12:19:06.445Z,13.13
2019-02-28T12:20:08.593Z,13.09
2019-02-28T12:21:09.602Z,13.11
2019-02-28T12:22:09.111Z,13.13
2019-02-28T12:23:06.413Z,13.07
2019-02-28T12:24:06.404Z,13.11
2019-02-28T12:25:10.059Z,13.1
2019-02-28T12:26:06.384Z,12.92
2019-02-28T12:27:06.596Z,13.01
2019-02-28T12:28:09.165Z,12.92
2019-02-28T12:29:06.350Z,12.91
2019-02-28T12:30:06.348Z,12.88
2019-02-28T12:31:06.337Z,12.89
2019-02-28T12:32:07.984Z,12.92
2019-02-28T12:33:06.090Z,12.84
2019-02-28T12:34:06.310Z,12.88
2019-02-28T12:35:07.258Z,12.86
2019-02-28T12:36:06.049Z,12.89
2019-02-28T12:37:06.289Z,12.94
2019-02-28T12:38:06.038Z,12.94
2019-02-28T12:39:07.121Z,12.94
2019-02-28T12:40:07.266Z,12.95
2019-02-28T12:41:06.260Z,12.92
2019-02-28T12:42:06.249Z,12.95
2019-02-28T12:43:08.591Z,12.91
2019-02-28T12:44:06.222Z,12.91
2019-02-28T12:45:05.970Z,12.91
2019-02-28T12:46:06.204Z,12.89
2019-02-28T12:47:09.609Z,12.88
2019-02-28T12:48:06.187Z,12.88
2019-02-28T12:49:06.178Z,12.91
2019-02-28T12:50:06.203Z,12.96
2019-02-28T12:51:09.685Z,12.98
2019-02-28T12:52:06.165Z,12.96
2019-02-28T12:53:05.898Z,12.96
2019-02-28T12:54:06.143Z,12.89
2019-02-28T12:55:08.972Z,12.88
2019-02-28T12:56:05.872Z,12.89
2019-02-28T12:57:06.109Z,12.89
2019-02-28T12:58:06.099Z,12.77
2019-02-28T12:59:06.122Z,12.76
2019-02-28T13:00:06.102Z,12.74
2019-02-28T13:01:06.132Z,12.71
2019-02-28T13:02:09.965Z,12.76
2019-02-28T13:03:06.062Z,12.73
2019-02-28T13:04:06.068Z,12.71
2019-02-28T13:05:08.483Z,12.65
2019-02-28T13:06:06.038Z,12.69
2019-02-28T13:07:06.020Z,12.59
2019-02-28T13:08:08.299Z,12.63
2019-02-28T13:09:06.030Z,12.62
2019-02-28T13:10:06.506Z,12.65
2019-02-28T13:11:09.347Z,12.65
2019-02-28T13:12:08.013Z,12.69
2019-02-28T13:13:11.394Z,12.7